Aeroporto :
LOGIN :

Iscrizione | Disclaimer

   EN    FR    IT 

 










Sommario :    VFR   VFR Marginale   IFR   IFR Intensivo   IFR Molto Intensivo
Visibilità : 
Base nubi : 
>= 8 km
>= 3000ft
5 / 8 km
1000 / 3000 ft
1500m / 5 km
500 / 1000 ft
800 / 1500m
200 / 500 ft
< 800m
< 200 ft
Simboli :   Temporali  Nebbia  Neve Forte  Precipitazioni Forti  Vento > 20 kt
SIGMETs :   Varie  Temporali  Ghiacco  Turbolenza  Onda orograficha  Ceneri Vulcaniche






- Altitudine del aeroporto : 49 ft
- Codice IATA : AOI


LIPY - Ancona Falconara

ULTIMO METAR :
  • 281250Z AUTO 32005KT 290V020 9999 BKN110/// 23/01 Q1023

METARs OBSOLETI :
  • 281220Z AUTO 03005KT 340V100 9999 NCD 23/02 Q1023
  • 281150Z AUTO 04006KT 350V080 9999 NCD 23/02 Q1023
  • 281120Z AUTO 05006KT 010V100 9999 FEW210/// 23/05 Q1024
  • 281050Z AUTO 03005KT 340V080 9999 NCD 22/05 Q1024
  • 281020Z AUTO 06006KT 360V090 9999 FEW220/// 22/06 Q1024

TAF TAF LIPY
Valido dal 28 a 12 ore il 29 a 12 ore UTC


281100Z 2812/2912 06010KT 9999 SCT040
BECMG 2817/2819 VRB04KT
TEMPO 2900/2909 TSRA



MetMap, La meteo Aeronautica in un colpo d'occhio ! - Copyright ORBIFLY Dicembre 2007 - Disclaimer

ORBIFLY MET'MAP TEAM :

Programmazione e sviluppo : Alexandra Zaïnal
Concezione : Baudouin d'Aumeries
Aiuto per la programmazione : Marc-Olivier Méhu
Supporto tecnico e logistico : Manuel Goepfert
Aiuto per la traduzione : Arnaldo La Scala

Contatto : metmap@orbifly.com




FONTI E CREDITI :

   NOAA